Apple Valley, Minnesota
Current Conditions -  °F | °C
As of 8:46 PM on Sunday 23 Nov 2014 (Local Time) from KLVN Reporting Station
Drizzle Drizzle  
Wind Chill: -3°   Ceiling: 1100
Heat Index:   Visibility: 10mi
Dew Point:   Wind: 13mph
Humidity: 100%   Direction: 290°WNW
Pressure: 29.35"   Gusts: NA
Location:  44.74°N, 93.22°W
Report Text: KLVN 240246Z AUTO 29011KT 10SM DZ OVC011 02/02 A2935 RMK AO2
Loading
Personal Weather Stations






























Interactive Weather Map New forecast layout! Learn more

10-Day Weather Forecast

Advertisements
Track Severe Weather on mobile